Time;durP1;ratioP1;P1;durP2;ratioP2;P2;SDS_P1;SDS_P2;PMS_P1;PMS_P2;Temp;Humidity;BMP_temperature;BMP_pressure;BME280_temperature;BME280_humidity;BME280_pressure;Samples;Min_cycle;Max_cycle;Signal;HPM_P1;HPM_P2
2022/11/27 00:02:20;;;;;;;5.18;1.83;;;;;;;19.10;43.26;102411.47;4962350;28;20403;-66
2022/11/27 00:04:45;;;;;;;5.10;1.80;;;;;;;19.08;43.20;102405.44;4961717;28;20053;-67
2022/11/27 00:07:10;;;;;;;4.57;1.90;;;;;;;19.09;43.44;102412.41;4962042;28;20134;-68
2022/11/27 00:09:35;;;;;;;4.77;1.83;;;;;;;19.06;43.19;102418.75;4962036;28;20276;-68
2022/11/27 00:12:01;;;;;;;5.10;1.77;;;;;;;19.08;43.02;102423.94;4961965;28;20630;-68
2022/11/27 00:14:26;;;;;;;5.37;1.60;;;;;;;19.07;43.21;102419.59;4962113;28;20138;-66
2022/11/27 00:16:51;;;;;;;4.37;1.70;;;;;;;19.03;43.21;102416.28;4962463;28;20284;-68
2022/11/27 00:19:17;;;;;;;4.57;2.08;;;;;;;19.06;43.22;102417.88;4965687;28;21464;-66
2022/11/27 00:21:42;;;;;;;4.88;1.45;;;;;;;19.01;42.89;102408.44;4965555;28;20034;-68
2022/11/27 00:24:09;;;;;;;5.38;2.03;;;;;;;19.02;42.86;102402.19;4965147;28;20678;-67
2022/11/27 00:26:34;;;;;;;4.93;2.00;;;;;;;19.02;42.98;102396.06;4965785;28;20081;-67
2022/11/27 00:29:00;;;;;;;4.50;1.73;;;;;;;19.00;42.72;102393.53;4965581;28;20058;-67
2022/11/27 00:31:29;;;;;;;4.05;1.73;;;;;;;18.96;42.79;102392.03;4965573;28;20050;-68
2022/11/27 00:33:56;;;;;;;4.03;1.67;;;;;;;18.98;42.60;102387.50;4965156;28;20054;-65
2022/11/27 00:36:22;;;;;;;5.70;2.08;;;;;;;18.95;42.79;102386.84;4965050;28;20030;-66
2022/11/27 00:38:47;;;;;;;5.10;1.90;;;;;;;18.95;42.65;102385.03;4965215;28;20797;-66
2022/11/27 00:41:21;;;;;;;4.93;1.60;;;;;;;18.95;42.68;102382.41;4965285;28;20031;-69
2022/11/27 00:43:46;;;;;;;4.43;1.60;;;;;;;18.95;42.89;102384.19;4965229;28;20268;-68
2022/11/27 00:46:13;;;;;;;5.82;2.20;;;;;;;18.93;42.63;102372.84;4964973;28;20522;-67
2022/11/27 00:48:38;;;;;;;5.60;2.00;;;;;;;18.91;42.53;102377.38;4964876;28;20046;-68
2022/11/27 00:51:06;;;;;;;4.80;1.77;;;;;;;18.89;42.71;102372.19;4965170;28;20057;-67
2022/11/27 00:53:32;;;;;;;4.28;1.85;;;;;;;18.90;42.65;102373.91;4964618;28;20030;-66
2022/11/27 00:55:58;;;;;;;4.63;1.95;;;;;;;18.88;42.49;102367.84;4964976;28;20054;-68
2022/11/27 00:58:24;;;;;;;5.35;2.03;;;;;;;18.89;42.58;102366.91;4964869;28;20376;-67
2022/11/27 01:00:54;;;;;;;6.82;2.17;;;;;;;18.84;42.79;102359.25;4964612;28;20038;-67
2022/11/27 01:03:20;;;;;;;4.70;1.75;;;;;;;18.89;42.68;102358.16;4964873;28;20034;-67
2022/11/27 01:05:45;;;;;;;4.63;1.95;;;;;;;18.88;42.52;102356.44;4964758;28;20035;-69
2022/11/27 01:08:10;;;;;;;5.15;1.92;;;;;;;18.84;42.58;102348.69;4964459;28;20046;-68
2022/11/27 01:10:36;;;;;;;4.60;1.70;;;;;;;18.85;42.55;102349.56;4965067;28;20086;-67
2022/11/27 01:13:01;;;;;;;5.07;1.93;;;;;;;18.82;42.38;102344.44;4964676;28;20062;-68
2022/11/27 01:15:26;;;;;;;6.30;2.00;;;;;;;18.84;42.41;102335.50;4964405;28;20269;-68
2022/11/27 01:17:52;;;;;;;4.82;2.03;;;;;;;18.81;42.21;102332.16;4964332;28;20472;-67
2022/11/27 01:20:17;;;;;;;5.73;1.97;;;;;;;18.82;42.43;102332.06;4964665;28;20061;-68
2022/11/27 01:22:42;;;;;;;6.75;2.05;;;;;;;18.82;42.45;102337.34;4962876;28;20348;-66
2022/11/27 01:25:08;;;;;;;3.67;1.40;;;;;;;18.81;42.50;102340.94;4979392;28;20109;-68
2022/11/27 01:27:33;;;;;;;5.00;1.70;;;;;;;18.80;42.44;102349.81;4964124;28;21203;-68
2022/11/27 01:29:59;;;;;;;4.80;1.90;;;;;;;18.77;42.32;102338.56;4963426;28;20034;-68
2022/11/27 01:32:24;;;;;;;4.53;1.88;;;;;;;18.77;42.31;102346.47;4964110;28;20074;-67
2022/11/27 01:34:50;;;;;;;4.90;2.05;;;;;;;18.73;42.29;102337.91;4963920;28;20074;-69
2022/11/27 01:37:15;;;;;;;4.47;2.00;;;;;;;18.74;42.30;102322.91;4963940;28;20097;-66
2022/11/27 01:39:40;;;;;;;4.53;1.70;;;;;;;18.75;42.31;102316.69;4964176;28;20267;-67
2022/11/27 01:42:07;;;;;;;4.67;1.97;;;;;;;18.76;42.45;102308.66;4964527;28;20037;-65
2022/11/27 01:44:36;;;;;;;5.15;1.92;;;;;;;18.75;42.34;102314.03;4964005;28;20479;-67
2022/11/27 01:47:16;;;;;;;3.90;1.77;;;;;;;18.73;42.25;102306.22;4964428;28;20128;-66
2022/11/27 01:49:47;;;;;;;6.38;1.90;;;;;;;18.73;42.20;102308.00;4963971;28;20038;-67
2022/11/27 01:52:17;;;;;;;5.75;1.88;;;;;;;18.71;42.45;102309.88;4963813;28;20097;-67
2022/11/27 01:54:51;;;;;;;5.82;2.67;;;;;;;18.66;42.33;102292.53;4964013;28;20121;-66
2022/11/27 01:57:44;;;;;;;6.50;1.80;;;;;;;18.73;42.27;102285.09;4963904;28;20111;-68
2022/11/27 02:00:12;;;;;;;6.55;2.05;;;;;;;18.68;42.73;102266.03;4963785;28;20291;-66
2022/11/27 02:02:42;;;;;;;4.68;1.77;;;;;;;18.66;42.39;102262.66;4964047;28;20472;-66
2022/11/27 02:05:08;;;;;;;6.32;2.35;;;;;;;18.71;42.65;102270.25;4963891;28;20046;-66
2022/11/27 02:07:34;;;;;;;5.38;2.10;;;;;;;18.68;42.47;102253.69;4978355;28;20130;-66
2022/11/27 02:09:59;;;;;;;5.28;1.98;;;;;;;18.69;42.59;102257.16;4963501;28;20117;-67
2022/11/27 02:12:32;;;;;;;4.97;2.10;;;;;;;18.66;42.27;102254.72;4963516;28;20046;-68
2022/11/27 02:15:12;;;;;;;4.72;1.88;;;;;;;18.66;42.36;102250.28;4963249;28;20093;-67
2022/11/27 02:17:46;;;;;;;5.45;1.85;;;;;;;18.65;42.37;102234.53;4963761;28;20114;-69
2022/11/27 02:20:26;;;;;;;5.50;1.90;;;;;;;18.67;42.31;102238.78;4963597;28;20070;-68
2022/11/27 02:23:13;;;;;;;5.07;2.03;;;;;;;18.66;42.29;102241.53;4963485;28;20056;-67
2022/11/27 02:26:17;;;;;;;5.30;1.90;;;;;;;18.66;42.16;102231.81;4963212;28;20066;-66
2022/11/27 02:29:00;;;;;;;7.82;2.50;;;;;;;18.62;42.13;102219.72;4963259;28;20106;-67
2022/11/27 02:31:45;;;;;;;5.35;2.17;;;;;;;18.62;42.00;102221.53;4963155;28;20420;-66
2022/11/27 02:34:41;;;;;;;5.32;1.85;;;;;;;18.61;42.08;102220.69;4963165;28;20497;-67
2022/11/27 02:37:23;;;;;;;5.10;2.10;;;;;;;18.61;42.12;102223.31;4963421;28;20038;-68
2022/11/27 02:40:07;;;;;;;5.82;2.10;;;;;;;18.62;41.98;102224.16;4962964;28;20022;-70
2022/11/27 02:42:40;;;;;;;4.85;2.00;;;;;;;18.59;42.29;102212.00;4963351;28;20034;-67
2022/11/27 02:45:15;;;;;;;5.95;2.30;;;;;;;18.59;42.07;102214.63;4963207;28;20121;-67
2022/11/27 02:47:43;;;;;;;5.68;2.03;;;;;;;18.60;42.15;102204.94;4962846;28;20125;-67
2022/11/27 02:50:14;;;;;;;4.90;2.20;;;;;;;18.59;42.27;102205.88;4962740;28;20077;-66
2022/11/27 02:52:41;;;;;;;4.85;2.08;;;;;;;18.57;42.11;102210.41;4962687;28;20061;-67
2022/11/27 02:55:11;;;;;;;4.65;1.83;;;;;;;18.58;42.07;102225.28;4963158;28;20043;-68
2022/11/27 02:57:38;;;;;;;5.53;1.90;;;;;;;18.56;41.97;102217.47;4962729;28;20109;-67
2022/11/27 03:00:05;;;;;;;7.28;2.15;;;;;;;18.58;41.82;102228.78;4962898;28;20042;-67
2022/11/27 03:02:38;;;;;;;5.38;2.05;;;;;;;18.56;41.92;102219.25;4962520;28;20030;-67
2022/11/27 03:05:05;;;;;;;5.93;2.20;;;;;;;18.56;42.23;102230.66;4962747;28;20050;-66
2022/11/27 03:07:38;;;;;;;4.75;2.05;;;;;;;18.57;42.04;102231.53;4962978;28;20126;-69
2022/11/27 03:10:11;;;;;;;4.35;1.88;;;;;;;18.55;41.95;102225.47;4962997;28;20043;-67
2022/11/27 03:12:37;;;;;;;6.65;2.22;;;;;;;18.58;41.93;102233.19;4962836;28;20022;-67
2022/11/27 03:15:03;;;;;;;4.97;1.90;;;;;;;18.53;41.91;102222.91;4962726;28;20395;-68
2022/11/27 03:17:44;;;;;;;4.50;2.05;;;;;;;18.54;41.91;102216.72;4962250;28;20046;-68
2022/11/27 03:20:19;;;;;;;5.20;2.00;;;;;;;18.49;41.99;102206.44;4962675;28;20035;-69
2022/11/27 03:22:45;;;;;;;5.07;1.95;;;;;;;18.53;41.70;102207.09;4962774;28;20487;-69
2022/11/27 03:25:10;;;;;;;5.28;2.20;;;;;;;18.51;41.90;102198.41;4962348;28;20041;-68
2022/11/27 03:27:41;;;;;;;5.40;1.95;;;;;;;18.53;41.84;102207.09;4962367;28;20031;-66
2022/11/27 03:30:08;;;;;;;5.68;2.13;;;;;;;18.49;41.84;102205.59;4962459;28;20217;-69
2022/11/27 03:32:33;;;;;;;4.88;2.10;;;;;;;18.51;41.92;102208.13;4962567;28;20133;-67
2022/11/27 03:34:59;;;;;;;8.25;2.53;;;;;;;18.53;41.78;102214.16;4962299;28;20177;-67
2022/11/27 03:37:26;;;;;;;5.75;1.80;;;;;;;18.49;41.73;102203.78;4962550;28;20039;-67
2022/11/27 03:39:52;;;;;;;5.07;1.83;;;;;;;18.50;41.67;102194.09;4962663;28;20042;-67
2022/11/27 03:42:17;;;;;;;4.80;2.00;;;;;;;18.50;41.85;102194.09;4962453;28;20391;-66
2022/11/27 03:44:51;;;;;;;5.57;2.10;;;;;;;18.48;41.85;102177.47;4962079;28;20031;-67
2022/11/27 03:47:38;;;;;;;5.28;1.83;;;;;;;18.49;41.65;102180.03;4962627;28;20272;-68
2022/11/27 03:50:17;;;;;;;4.82;2.00;;;;;;;18.45;41.56;102170.63;4962441;28;20432;-67
2022/11/27 03:53:06;;;;;;;5.18;1.80;;;;;;;18.48;41.72;102180.13;4964381;28;20042;-68
2022/11/27 03:55:44;;;;;;;4.53;1.98;;;;;;;18.47;41.85;102184.56;4965825;28;20058;-67
2022/11/27 03:58:33;;;;;;;5.07;1.90;;;;;;;18.47;41.66;102168.72;4966024;28;20034;-67
2022/11/27 04:01:00;;;;;;;5.30;1.95;;;;;;;18.47;41.60;102176.66;4966073;28;20117;-67
2022/11/27 04:03:27;;;;;;;4.63;1.88;;;;;;;18.46;41.59;102174.09;4965809;28;20121;-67
2022/11/27 04:05:53;;;;;;;4.20;1.85;;;;;;;18.44;41.57;102174.19;4965776;28;20039;-66
2022/11/27 04:08:18;;;;;;;5.05;1.95;;;;;;;18.45;41.48;102189.09;4965812;28;20042;-66
2022/11/27 04:10:44;;;;;;;4.43;1.70;;;;;;;18.42;41.85;102178.72;4966583;28;20035;-66
2022/11/27 04:13:09;;;;;;;4.90;1.80;;;;;;;18.45;41.59;102188.22;4966323;28;20093;-67
2022/11/27 04:15:34;;;;;;;4.33;1.80;;;;;;;18.43;41.66;102190.13;4965739;28;20070;-68
2022/11/27 04:17:59;;;;;;;3.88;1.70;;;;;;;18.45;41.38;102196.16;4966282;28;20291;-66
2022/11/27 04:20:25;;;;;;;4.90;1.80;;;;;;;18.44;41.46;102197.13;4965600;28;20467;-68
2022/11/27 04:22:50;;;;;;;5.40;2.00;;;;;;;18.44;41.30;102199.75;4965747;28;20331;-67
2022/11/27 04:25:16;;;;;;;5.40;1.92;;;;;;;18.41;41.43;102197.28;4965470;28;20088;-67
2022/11/27 04:27:41;;;;;;;4.30;1.73;;;;;;;18.42;41.62;102193.69;4965605;28;20038;-67
2022/11/27 04:30:07;;;;;;;4.13;1.70;;;;;;;18.38;41.43;102182.47;4965625;28;20368;-66
2022/11/27 04:32:33;;;;;;;4.63;1.85;;;;;;;18.40;41.65;102190.31;4965203;28;20082;-65
2022/11/27 04:34:58;;;;;;;4.75;1.83;;;;;;;18.42;41.44;102188.41;4964923;28;20058;-68
2022/11/27 04:37:23;;;;;;;4.30;1.70;;;;;;;18.40;41.44;102183.22;4964503;28;20026;-69
2022/11/27 04:39:48;;;;;;;4.38;1.90;;;;;;;18.39;41.48;102183.31;4964978;28;20038;-67
2022/11/27 04:42:14;;;;;;;5.55;2.20;;;;;;;18.37;41.61;102187.84;4965781;28;20034;-69
2022/11/27 04:44:39;;;;;;;3.85;1.88;;;;;;;18.40;41.50;102191.16;4980238;28;20031;-67
2022/11/27 04:47:04;;;;;;;3.78;1.70;;;;;;;18.38;41.42;102184.28;4965357;28;20043;-68
2022/11/27 04:49:29;;;;;;;3.70;1.53;;;;;;;18.39;41.35;102175.41;4964840;28;20058;-68
2022/11/27 04:51:55;;;;;;;4.97;1.67;;;;;;;18.39;41.41;102175.41;4965174;28;20272;-68
2022/11/27 04:54:20;;;;;;;5.00;1.90;;;;;;;18.39;41.56;102170.13;4964720;28;20273;-65
2022/11/27 04:56:45;;;;;;;5.65;2.00;;;;;;;18.39;41.53;102171.00;4965263;28;20078;-67
2022/11/27 04:59:10;;;;;;;5.32;1.88;;;;;;;18.35;41.44;102158.06;4964600;28;20181;-68
2022/11/27 05:01:36;;;;;;;3.30;1.50;;;;;;;18.37;41.13;102159.66;4979980;28;20034;-66
2022/11/27 05:04:01;;;;;;;4.35;1.58;;;;;;;18.36;41.40;102160.63;4965111;28;20271;-67
2022/11/27 05:06:27;;;;;;;3.47;1.60;;;;;;;18.37;41.20;102153.53;4964885;28;20045;-69
2022/11/27 05:08:58;;;;;;;6.32;1.67;;;;;;;18.34;41.23;102143.19;4964593;28;20045;-68
2022/11/27 05:11:24;;;;;;;4.70;1.63;;;;;;;18.33;41.37;102139.69;4964958;28;20057;-67
2022/11/27 05:14:13;;;;;;;4.50;1.70;;;;;;;18.34;41.33;102138.78;4964653;28;20089;-68
2022/11/27 05:16:35;;;;;;;3.90;1.58;;;;;;;18.31;41.20;102129.22;4964603;28;20057;-68
2022/11/27 05:19:00;;;;;;;3.97;1.73;;;;;;;18.32;41.47;102127.44;4964404;28;20415;-66
2022/11/27 05:21:25;;;;;;;6.00;1.73;;;;;;;18.30;41.02;102119.59;4964766;28;20273;-67
2022/11/27 05:23:50;;;;;;;5.53;1.80;;;;;;;18.31;41.30;102123.13;4964161;28;20375;-67
2022/11/27 05:26:16;;;;;;;5.37;1.70;;;;;;;18.32;41.39;102124.78;4964511;28;20753;-66
2022/11/27 05:28:41;;;;;;;3.60;1.70;;;;;;;18.33;41.25;102134.41;4964194;28;20295;-69
2022/11/27 05:31:06;;;;;;;3.90;1.70;;;;;;;18.27;41.36;102125.06;4964451;28;20384;-67
2022/11/27 05:33:31;;;;;;;4.07;1.53;;;;;;;18.33;41.27;102125.66;4964131;28;20141;-67
2022/11/27 05:35:57;;;;;;;4.05;1.60;;;;;;;18.29;41.27;102125.84;4964335;28;20756;-68
2022/11/27 05:38:22;;;;;;;5.13;1.38;;;;;;;18.30;41.23;102132.81;4964062;28;20084;-68
2022/11/27 05:40:47;;;;;;;6.00;1.92;;;;;;;18.30;41.34;102126.69;4964245;28;20027;-66
2022/11/27 05:43:13;;;;;;;4.60;1.77;;;;;;;18.28;41.54;102118.88;4964085;28;20491;-68
2022/11/27 05:45:38;;;;;;;3.65;1.50;;;;;;;18.27;41.45;102108.41;4964087;28;20049;-68
2022/11/27 05:48:03;;;;;;;4.73;1.63;;;;;;;18.29;41.35;102107.38;4964489;28;20038;-68
2022/11/27 05:50:29;;;;;;;6.95;1.70;;;;;;;18.25;41.40;102095.31;4963916;28;20787;-67
2022/11/27 05:52:54;;;;;;;5.45;1.80;;;;;;;18.24;41.11;102090.97;4963616;28;20246;-68
2022/11/27 05:55:19;;;;;;;3.87;1.80;;;;;;;18.28;41.14;102089.84;4963969;28;20039;-68
2022/11/27 05:57:44;;;;;;;4.15;1.70;;;;;;;18.25;41.29;102082.09;4978515;28;21205;-68
2022/11/27 06:00:10;;;;;;;3.85;1.50;;;;;;;18.27;41.22;102082.84;4963949;28;20038;-67
2022/11/27 06:02:35;;;;;;;4.38;1.73;;;;;;;18.25;41.28;102076.00;4963660;28;20480;-67
2022/11/27 06:05:01;;;;;;;3.55;1.50;;;;;;;18.29;41.50;102082.75;4963726;28;20023;-69
2022/11/27 06:07:26;;;;;;;3.75;1.55;;;;;;;18.27;41.62;102079.38;4963745;28;20042;-68
2022/11/27 06:09:51;;;;;;;3.20;1.40;;;;;;;18.33;41.68;102086.06;4963686;28;20035;-68
2022/11/27 06:12:16;;;;;;;4.83;1.90;;;;;;;18.35;41.81;102085.03;4964087;28;20275;-68
2022/11/27 06:14:42;;;;;;;4.10;1.40;;;;;;;18.37;41.99;102077.84;4963096;28;20273;-68
2022/11/27 06:17:07;;;;;;;4.07;1.55;;;;;;;18.41;42.00;102079.34;4978137;28;21177;-67
2022/11/27 06:19:32;;;;;;;4.65;1.33;;;;;;;18.42;41.79;102075.78;4963345;28;20039;-67
2022/11/27 06:21:57;;;;;;;3.40;1.33;;;;;;;18.48;41.67;102083.31;4963303;28;20038;-68
2022/11/27 06:24:23;;;;;;;2.80;1.10;;;;;;;18.50;41.92;102075.31;4963520;28;20038;-66
2022/11/27 06:26:48;;;;;;;2.63;1.20;;;;;;;18.53;41.79;102075.06;4963091;28;20042;-68
2022/11/27 06:29:13;;;;;;;4.70;1.30;;;;;;;18.58;41.83;102066.88;4963420;28;20031;-67
2022/11/27 06:31:39;;;;;;;2.87;1.20;;;;;;;18.60;41.45;102063.19;4963082;28;20534;-68
2022/11/27 06:34:05;;;;;;;2.90;1.35;;;;;;;18.66;41.61;102072.53;4963329;28;20268;-67
2022/11/27 06:36:33;;;;;;;3.80;1.40;;;;;;;18.64;41.80;102063.84;4962548;28;20031;-68
2022/11/27 06:39:00;;;;;;;2.78;1.10;;;;;;;18.65;41.68;102069.03;4962874;28;20045;-68
2022/11/27 06:41:27;;;;;;;3.50;1.30;;;;;;;18.73;41.58;102080.91;4963222;28;20035;-68
2022/11/27 06:43:53;;;;;;;2.22;1.08;;;;;;;18.71;41.62;102070.44;4962999;28;20125;-68
2022/11/27 06:46:21;;;;;;;3.05;1.25;;;;;;;18.75;41.66;102079.00;4962739;28;20042;-68
2022/11/27 06:48:48;;;;;;;3.55;1.50;;;;;;;18.78;41.44;102078.81;4962908;28;20046;-71
2022/11/27 06:51:17;;;;;;;3.40;1.20;;;;;;;18.77;41.41;102071.81;4978041;28;20035;-68
2022/11/27 06:53:42;;;;;;;4.47;1.20;;;;;;;18.80;41.20;102071.63;4963138;28;20042;-68
2022/11/27 06:56:11;;;;;;;3.72;1.30;;;;;;;18.72;41.38;102048.34;4962644;28;20038;-69
2022/11/27 06:58:37;;;;;;;3.40;1.30;;;;;;;18.81;41.45;102060.97;4962857;28;20502;-67
2022/11/27 07:01:06;;;;;;;3.95;1.20;;;;;;;18.83;41.67;102058.22;4962671;28;20034;-68
2022/11/27 07:03:31;;;;;;;3.60;1.35;;;;;;;18.85;41.32;102059.84;4962513;28;20039;-69
2022/11/27 07:06:02;;;;;;;3.33;1.30;;;;;;;18.85;41.46;102048.47;4962752;28;20085;-67
2022/11/27 07:08:27;;;;;;;3.33;1.45;;;;;;;18.87;41.39;102048.31;4963016;28;20031;-66
2022/11/27 07:10:53;;;;;;;2.80;1.13;;;;;;;18.89;41.57;102051.72;4977489;28;20039;-68
2022/11/27 07:13:18;;;;;;;3.10;1.27;;;;;;;18.89;41.58;102039.38;4962728;28;20034;-66
2022/11/27 07:15:44;;;;;;;3.33;1.20;;;;;;;18.89;41.18;102026.16;4962454;28;20039;-67
2022/11/27 07:18:09;;;;;;;2.95;1.10;;;;;;;18.92;41.36;102025.13;4962200;28;20403;-67
2022/11/27 07:20:35;;;;;;;2.85;1.00;;;;;;;18.90;41.42;102016.44;4962753;28;20376;-67
2022/11/27 07:23:00;;;;;;;2.97;1.02;;;;;;;18.89;41.22;102012.13;4962861;28;20085;-65
2022/11/27 07:25:25;;;;;;;3.90;1.30;;;;;;;18.91;41.47;102015.50;4963078;28;20387;-66
2022/11/27 07:27:51;;;;;;;3.42;1.27;;;;;;;18.92;41.48;102007.47;4964732;28;20463;-68
2022/11/27 07:30:16;;;;;;;3.78;1.23;;;;;;;18.93;41.50;102016.22;4966603;28;20070;-66
2022/11/27 07:32:41;;;;;;;2.75;1.20;;;;;;;18.91;41.29;102007.56;4966262;28;20113;-68
2022/11/27 07:35:07;;;;;;;4.43;1.50;;;;;;;18.92;41.31;102006.63;4966709;28;20034;-66
2022/11/27 07:37:33;;;;;;;2.95;1.20;;;;;;;18.92;41.47;102004.00;4966045;28;20031;-68
2022/11/27 07:39:58;;;;;;;3.25;1.13;;;;;;;18.91;41.24;102007.56;4966615;28;20062;-68
2022/11/27 07:42:24;;;;;;;3.40;1.33;;;;;;;18.91;41.47;102007.56;4966176;28;20037;-67
2022/11/27 07:44:49;;;;;;;3.35;1.20;;;;;;;18.92;41.35;102006.63;4966146;28;20081;-68
2022/11/27 07:47:14;;;;;;;3.80;1.23;;;;;;;18.89;41.37;101997.09;4966138;28;20038;-66
2022/11/27 07:49:40;;;;;;;2.75;1.10;;;;;;;18.92;41.44;101996.06;4966198;28;20031;-68
2022/11/27 07:52:05;;;;;;;3.05;1.35;;;;;;;18.88;41.50;101989.28;4966166;28;20061;-68
2022/11/27 07:54:30;;;;;;;2.88;1.20;;;;;;;18.88;41.52;101970.78;4965991;28;20030;-69
2022/11/27 07:56:56;;;;;;;4.40;1.40;;;;;;;18.89;41.36;101975.13;4966260;28;20022;-67
2022/11/27 07:59:21;;;;;;;2.85;1.20;;;;;;;18.90;41.54;101969.75;4966204;28;20339;-69
2022/11/27 08:01:46;;;;;;;3.47;1.30;;;;;;;18.87;41.45;101959.38;4965925;28;20084;-68
2022/11/27 08:04:11;;;;;;;3.30;1.30;;;;;;;18.89;41.52;101960.13;4965911;28;20951;-67
2022/11/27 08:06:37;;;;;;;2.55;1.20;;;;;;;18.90;41.79;101964.47;4965995;28;20057;-69
2022/11/27 08:09:02;;;;;;;3.33;1.30;;;;;;;18.89;41.52;101957.47;4966096;28;20050;-67
2022/11/27 08:11:31;;;;;;;3.13;1.20;;;;;;;18.89;41.58;101961.94;4965849;28;20744;-67
2022/11/27 08:13:59;;;;;;;3.38;1.20;;;;;;;18.89;41.67;101961.94;4965773;28;20035;-69
2022/11/27 08:16:25;;;;;;;4.15;1.50;;;;;;;18.87;41.55;101963.81;4965548;28;20134;-69
2022/11/27 08:18:51;;;;;;;3.42;1.30;;;;;;;18.87;41.78;101958.53;4965603;28;20035;-68
2022/11/27 08:21:17;;;;;;;5.28;1.38;;;;;;;18.87;41.81;101955.88;4965504;28;20034;-68
2022/11/27 08:23:42;;;;;;;2.67;1.10;;;;;;;18.90;41.99;101963.59;4965635;28;20023;-67
2022/11/27 08:26:09;;;;;;;3.72;1.50;;;;;;;18.90;42.16;101960.97;4965202;28;20073;-66
2022/11/27 08:28:35;;;;;;;3.65;1.40;;;;;;;18.91;42.09;101958.22;4965708;28;20451;-67
2022/11/27 08:31:02;;;;;;;3.25;1.27;;;;;;;18.92;42.22;101965.19;4980035;28;20035;-65
2022/11/27 08:33:29;;;;;;;2.97;1.33;;;;;;;18.91;42.29;101950.28;4979871;28;21012;-68
2022/11/27 08:35:54;;;;;;;4.10;1.25;;;;;;;18.90;42.13;101958.31;4965460;28;20375;-67
2022/11/27 08:38:20;;;;;;;3.40;1.10;;;;;;;18.93;42.53;101955.47;4964952;28;20530;-68
2022/11/27 08:40:54;;;;;;;3.03;1.38;;;;;;;18.95;42.29;101959.72;4965400;28;20038;-69
2022/11/27 08:43:19;;;;;;;10.57;1.55;;;;;;;18.95;42.32;101959.72;4965395;28;20035;-66
2022/11/27 08:45:44;;;;;;;3.63;1.20;;;;;;;18.95;42.08;101958.88;4964996;28;20090;-67
2022/11/27 08:48:10;;;;;;;4.63;1.30;;;;;;;18.93;42.22;101950.19;4964946;28;20089;-65
2022/11/27 08:50:36;;;;;;;4.53;1.20;;;;;;;18.97;42.38;101956.97;4965738;28;20490;-67
2022/11/27 08:53:02;;;;;;;4.68;1.25;;;;;;;18.89;42.33;101939.00;4965285;28;20269;-66
2022/11/27 08:55:27;;;;;;;4.47;1.38;;;;;;;18.98;42.61;101956.03;4964897;28;20747;-66
2022/11/27 08:57:52;;;;;;;3.53;1.20;;;;;;;18.99;42.55;101955.06;4964694;28;20042;-66
2022/11/27 09:00:18;;;;;;;2.63;1.10;;;;;;;19.01;42.46;101966.41;4964865;28;21088;-66
2022/11/27 09:02:44;;;;;;;2.78;1.20;;;;;;;19.01;42.48;101969.88;4964921;28;20030;-66
2022/11/27 09:05:09;;;;;;;3.72;1.33;;;;;;;19.02;42.58;101960.97;4964885;28;20034;-68
2022/11/27 09:07:34;;;;;;;3.45;1.30;;;;;;;19.05;42.53;101964.38;4965090;28;20041;-65
2022/11/27 09:09:59;;;;;;;3.88;1.55;;;;;;;19.03;42.65;101953.91;4964803;28;20426;-67
2022/11/27 09:12:26;;;;;;;3.60;1.38;;;;;;;19.06;42.52;101959.00;4964829;28;20030;-67
2022/11/27 09:14:51;;;;;;;3.15;1.23;;;;;;;19.05;42.80;101956.47;4964234;28;20323;-66
2022/11/27 09:17:17;;;;;;;2.58;1.08;;;;;;;19.04;42.70;101950.31;4964692;28;20435;-66
2022/11/27 09:19:42;;;;;;;4.05;1.30;;;;;;;19.06;42.93;101956.34;4964554;28;20031;-66
2022/11/27 09:22:07;;;;;;;4.97;1.30;;;;;;;19.07;42.78;101955.38;4964693;28;20038;-64
2022/11/27 09:24:32;;;;;;;4.22;1.80;;;;;;;19.06;42.93;101958.13;4964293;28;20039;-67
2022/11/27 09:26:58;;;;;;;4.23;1.70;;;;;;;19.03;43.02;101946.81;4964370;28;20034;-65
2022/11/27 09:29:23;;;;;;;4.67;1.50;;;;;;;19.07;42.84;101952.75;4964225;28;20327;-68
2022/11/27 09:31:48;;;;;;;6.55;1.70;;;;;;;19.08;42.88;101951.81;4979128;28;21112;-67
2022/11/27 09:34:14;;;;;;;3.47;1.40;;;;;;;19.09;43.33;101960.56;4964629;28;20038;-68
2022/11/27 09:36:39;;;;;;;6.00;1.48;;;;;;;19.06;43.06;101952.84;4964385;28;20035;-68
2022/11/27 09:39:04;;;;;;;3.90;1.50;;;;;;;19.12;43.29;101961.22;4964210;28;20026;-68
2022/11/27 09:41:50;;;;;;;5.38;2.67;;;;;;;19.09;43.15;101950.88;4964441;28;20034;-67
2022/11/27 09:44:41;;;;;;;3.38;1.25;;;;;;;19.10;43.56;101947.25;4963984;28;20045;-67
2022/11/27 09:47:31;;;;;;;4.15;1.58;;;;;;;19.12;43.49;101953.31;4964218;28;20113;-66
2022/11/27 09:50:00;;;;;;;4.22;1.35;;;;;;;19.11;43.48;101945.47;4963427;28;20038;-68
2022/11/27 09:53:07;;;;;;;4.28;1.58;;;;;;;19.13;43.47;101939.13;4964359;28;20479;-66
2022/11/27 09:55:42;;;;;;;4.07;1.60;;;;;;;19.11;43.50;101935.75;4965995;28;20047;-67
2022/11/27 09:58:26;;;;;;;;;;;;;;;19.19;43.55;101935.22;4978897;28;20832;-68
2022/11/27 10:00:51;;;;;;;3.40;1.40;;;;;;;19.17;43.20;101923.91;4963834;28;19928;-67
2022/11/27 10:03:23;;;;;;;4.20;1.65;;;;;;;19.13;43.41;101922.44;4963531;28;20027;-70
2022/11/27 10:06:19;;;;;;;4.85;1.55;;;;;;;19.17;43.53;101930.03;4978579;28;20041;-70
2022/11/27 10:08:58;;;;;;;3.50;1.35;;;;;;;19.14;43.56;101921.50;4963633;28;20043;-67
2022/11/27 10:11:41;;;;;;;3.92;1.42;;;;;;;19.12;43.62;101913.66;4978504;28;20402;-69
2022/11/27 10:14:24;;;;;;;3.63;1.50;;;;;;;19.11;43.57;101906.69;4963835;28;20101;-69
2022/11/27 10:17:11;;;;;;;5.57;1.53;;;;;;;19.12;43.33;101908.38;4963435;28;20479;-68
2022/11/27 10:19:48;;;;;;;5.55;1.52;;;;;;;19.13;43.42;101896.00;4963799;28;20264;-66
2022/11/27 10:22:17;;;;;;;5.85;1.90;;;;;;;19.16;43.41;101893.16;4963685;28;21229;-68
2022/11/27 10:25:01;;;;;;;4.32;1.88;;;;;;;19.15;43.13;101886.16;4963221;28;20033;-69
2022/11/27 10:27:54;;;;;;;3.35;1.38;;;;;;;19.15;43.43;101881.75;4963565;28;20077;-70
2022/11/27 10:30:20;;;;;;;5.97;1.60;;;;;;;19.05;43.39;101872.75;4961974;28;21015;-72
2022/11/27 10:32:49;;;;;;;2.72;1.27;;;;;;;19.11;43.51;101880.25;4961723;28;20063;-72
2022/11/27 10:35:21;;;;;;;4.35;1.50;;;;;;;19.10;43.37;101875.91;4962421;28;20080;-70
2022/11/27 10:37:55;;;;;;;3.92;1.60;;;;;;;19.11;43.39;101874.97;4961472;28;20174;-69
2022/11/27 10:40:33;;;;;;;3.63;1.38;;;;;;;19.10;43.43;101869.78;4963100;28;20055;-71
2022/11/27 10:43:11;;;;;;;5.25;1.30;;;;;;;19.11;43.28;101868.84;4962315;28;20027;-70
2022/11/27 10:45:43;;;;;;;3.85;1.50;;;;;;;19.11;43.25;101863.56;4963162;28;20027;-70
2022/11/27 10:48:10;;;;;;;4.72;1.50;;;;;;;19.07;43.24;101865.56;4963817;28;20033;-72
2022/11/27 10:50:36;;;;;;;3.30;1.40;;;;;;;19.08;43.17;101861.97;4963296;28;20486;-71
2022/11/27 10:53:18;;;;;;;4.38;1.40;;;;;;;19.09;43.21;101855.75;4962908;28;20023;-70
2022/11/27 10:56:15;;;;;;;2.95;1.42;;;;;;;19.11;43.21;101856.47;4961012;28;20497;-67
2022/11/27 10:58:53;;;;;;;4.38;1.60;;;;;;;19.07;43.11;101854.16;4962413;28;20463;-69
2022/11/27 11:01:20;;;;;;;4.82;1.70;;;;;;;19.09;43.06;101845.19;4962984;28;20689;-72
2022/11/27 11:03:46;;;;;;;3.83;1.60;;;;;;;19.09;43.03;101839.03;4962592;28;20718;-73
2022/11/27 11:06:16;;;;;;;5.93;1.70;;;;;;;19.06;43.20;101837.47;4960751;28;20565;-73
2022/11/27 11:08:41;;;;;;;3.35;1.42;;;;;;;19.07;43.35;101830.38;4962169;28;20069;-74
2022/11/27 11:11:08;;;;;;;4.22;1.58;;;;;;;19.09;43.47;101829.31;4961760;28;20062;-71
2022/11/27 11:13:39;;;;;;;3.80;1.75;;;;;;;19.09;43.22;101818.75;4961922;28;20476;-72
2022/11/27 11:16:15;;;;;;;3.72;1.60;;;;;;;19.10;43.49;101817.78;4961705;28;20428;-71
2022/11/27 11:18:42;;;;;;;7.60;1.70;;;;;;;19.14;43.40;101818.44;4961873;28;20038;-69
2022/11/27 11:21:49;;;;;;;3.55;1.52;;;;;;;19.15;43.18;101807.75;4963087;28;20041;-70
2022/11/27 11:24:22;;;;;;;3.20;1.60;;;;;;;19.16;43.15;101796.22;4971370;28;20050;-71
2022/11/27 11:26:54;;;;;;;3.58;1.45;;;;;;;19.19;43.31;101801.28;4961983;28;20046;-69
2022/11/27 11:29:29;;;;;;;4.60;1.88;;;;;;;19.20;43.16;101800.34;4976587;28;20170;-69
2022/11/27 11:31:56;;;;;;;3.80;1.60;;;;;;;19.23;43.22;101793.97;4962311;28;20035;-73
2022/11/27 11:34:28;;;;;;;4.40;1.80;;;;;;;19.20;42.93;101787.13;4962417;28;20133;-70